Time;durP1;ratioP1;P1;durP2;ratioP2;P2;SDS_P1;SDS_P2;PMS_P1;PMS_P2;Temp;Humidity;BMP_temperature;BMP_pressure;BME280_temperature;BME280_humidity;BME280_pressure;Samples;Min_cycle;Max_cycle;Signal;HPM_P1;HPM_P2
2024/01/28 00:02:52;;;;;;;10.77;4.10;;;;;;;17.35;48.23;103079.09;10411133;28;20021;-56
2024/01/28 00:07:52;;;;;;;4.87;3.60;;;;;;;17.42;48.06;103069.09;10418295;28;20029;-56
2024/01/28 00:12:53;;;;;;;8.67;3.83;;;;;;;17.39;48.34;103063.34;10413898;28;20284;-55
2024/01/28 00:17:55;;;;;;;9.90;4.57;;;;;;;17.44;48.16;103056.25;10409698;28;20682;-56
2024/01/28 00:22:55;;;;;;;6.80;3.55;;;;;;;17.42;48.42;103042.28;10410092;28;20290;-57
2024/01/28 00:27:55;;;;;;;7.20;4.53;;;;;;;17.46;47.88;103024.66;10409311;28;20036;-56
2024/01/28 00:32:55;;;;;;;6.63;3.22;;;;;;;17.45;48.84;103025.72;10436081;28;20280;-56
2024/01/28 00:37:57;;;;;;;8.10;4.90;;;;;;;17.47;48.09;103034.34;10409198;28;20025;-56
2024/01/28 00:42:57;;;;;;;6.40;3.92;;;;;;;17.41;49.13;103045.19;10410189;28;20284;-56
2024/01/28 00:47:58;;;;;;;9.43;3.90;;;;;;;17.41;47.88;103045.19;10408660;28;20370;-56
2024/01/28 00:52:58;;;;;;;5.68;3.53;;;;;;;17.40;48.35;103055.06;10409261;28;20276;-57
2024/01/28 00:58:02;;;;;;;6.93;4.20;;;;;;;17.39;47.93;103053.44;10408420;28;20172;-57
2024/01/28 01:03:02;;;;;;;6.68;4.00;;;;;;;17.40;48.61;103052.38;10408700;28;20316;-55
2024/01/28 01:08:02;;;;;;;7.93;3.80;;;;;;;17.41;48.42;103051.38;10418365;28;20055;-56
2024/01/28 01:13:03;;;;;;;8.02;3.92;;;;;;;17.45;48.43;103036.44;10410997;28;20296;-56
2024/01/28 01:18:03;;;;;;;8.73;4.15;;;;;;;17.47;47.34;103047.75;10408004;28;20056;-56
2024/01/28 01:23:04;;;;;;;7.95;3.70;;;;;;;17.50;46.98;103043.78;10408592;28;20049;-56
2024/01/28 01:28:04;;;;;;;6.82;3.70;;;;;;;17.46;48.12;103051.47;10407927;28;20029;-56
2024/01/28 01:33:05;;;;;;;13.02;3.58;;;;;;;17.48;48.27;103035.16;10439380;28;20083;-56
2024/01/28 01:38:06;;;;;;;6.28;3.75;;;;;;;17.45;48.51;103030.25;10415868;28;20017;-55
2024/01/28 01:43:09;;;;;;;6.63;3.67;;;;;;;17.45;47.79;103017.66;10416079;28;20394;-56
2024/01/28 01:48:12;;;;;;;8.15;3.78;;;;;;;17.43;47.33;103013.59;10415378;28;20021;-55
2024/01/28 01:53:13;;;;;;;6.07;3.40;;;;;;;17.44;47.20;103018.72;10415570;28;20123;-56
2024/01/28 01:58:14;;;;;;;5.22;3.30;;;;;;;17.44;47.40;103024.06;10415178;28;20049;-56
2024/01/28 02:03:14;;;;;;;5.53;3.65;;;;;;;17.42;47.48;103022.69;10413747;28;20029;-57
2024/01/28 02:08:15;;;;;;;6.77;3.13;;;;;;;17.41;47.07;103011.13;10426406;28;20043;-56
2024/01/28 02:13:16;;;;;;;6.33;3.57;;;;;;;17.41;47.08;103018.38;10415511;28;20319;-55
2024/01/28 02:18:16;;;;;;;7.28;3.58;;;;;;;17.43;48.45;103024.31;10414777;28;20679;-56
2024/01/28 02:23:23;;;;;;;6.13;3.27;;;;;;;17.44;47.42;103018.72;10414424;28;20033;-55
2024/01/28 02:28:23;;;;;;;5.55;2.83;;;;;;;17.46;47.42;103018.47;10412868;28;20303;-55
2024/01/28 02:33:24;;;;;;;5.90;3.10;;;;;;;17.42;47.47;103009.28;10438376;28;20029;-55
2024/01/28 02:38:24;;;;;;;10.83;3.40;;;;;;;17.44;47.56;102983.03;10413597;28;20112;-56
2024/01/28 02:43:24;;;;;;;6.68;3.35;;;;;;;17.43;47.70;102987.56;10414009;28;20288;-55
2024/01/28 02:48:25;;;;;;;4.60;2.70;;;;;;;17.42;47.70;102977.91;10413003;28;20036;-55
2024/01/28 02:53:25;;;;;;;5.75;3.47;;;;;;;17.46;46.97;102962.97;10413316;28;20275;-56
2024/01/28 02:58:26;;;;;;;5.97;3.23;;;;;;;17.50;47.57;102958.75;10412960;28;20068;-56
2024/01/28 03:03:27;;;;;;;6.68;2.85;;;;;;;17.53;47.61;102954.81;10412771;28;20296;-56
2024/01/28 03:08:27;;;;;;;6.97;3.20;;;;;;;17.44;46.66;102953.53;10425245;28;20043;-56
2024/01/28 03:13:28;;;;;;;12.13;4.03;;;;;;;17.46;46.95;102956.78;10411938;28;20124;-56
2024/01/28 03:18:28;;;;;;;4.88;2.92;;;;;;;17.44;46.74;102942.81;10412362;28;20790;-55
2024/01/28 03:23:29;;;;;;;7.53;3.27;;;;;;;17.43;46.62;102947.34;10411805;28;20656;-55
2024/01/28 03:28:29;;;;;;;8.48;2.80;;;;;;;17.44;46.56;102950.84;10412283;28;20268;-55
2024/01/28 03:33:30;;;;;;;8.50;3.85;;;;;;;17.39;45.71;102946.16;10412094;28;20017;-55
2024/01/28 03:38:30;;;;;;;4.85;3.03;;;;;;;17.42;45.85;102940.34;10411735;28;20026;-56
2024/01/28 03:43:30;;;;;;;4.30;2.90;;;;;;;17.45;45.32;102947.94;10410976;28;20034;-56
2024/01/28 03:48:31;;;;;;;6.95;3.22;;;;;;;17.48;46.27;102943.97;10411043;28;20280;-55
2024/01/28 03:53:31;;;;;;;6.30;3.13;;;;;;;17.50;46.77;102944.53;10410046;28;20032;-56
2024/01/28 03:58:31;;;;;;;5.45;3.22;;;;;;;17.46;46.89;102930.78;10410991;28;20750;-55
2024/01/28 04:03:32;;;;;;;5.80;3.13;;;;;;;17.56;45.08;102919.47;10409876;28;20025;-55
2024/01/28 04:08:32;;;;;;;5.90;3.00;;;;;;;17.56;45.83;102919.47;10422915;28;20275;-55
2024/01/28 04:13:32;;;;;;;4.13;2.80;;;;;;;17.57;44.80;102920.28;10408376;28;20296;-55
2024/01/28 04:18:33;;;;;;;7.73;3.30;;;;;;;17.54;45.33;102906.28;10410049;28;20322;-55
2024/01/28 04:23:33;;;;;;;7.05;3.92;;;;;;;17.58;45.12;102906.63;10409760;28;20021;-55
2024/01/28 04:28:33;;;;;;;5.30;3.03;;;;;;;17.59;44.45;102912.81;10409671;28;20022;-56
2024/01/28 04:33:34;;;;;;;6.33;3.23;;;;;;;17.53;45.25;102896.63;10435413;28;20280;-55
2024/01/28 04:38:34;;;;;;;5.97;2.97;;;;;;;17.51;45.78;102892.53;10409634;28;20808;-56
2024/01/28 04:43:38;;;;;;;7.18;3.30;;;;;;;17.52;44.75;102891.47;10408551;28;20333;-55
2024/01/28 04:48:38;;;;;;;5.45;3.50;;;;;;;17.51;45.56;102893.34;10416443;28;20028;-54
2024/01/28 04:53:39;;;;;;;4.10;2.40;;;;;;;17.52;45.31;102886.09;10425544;28;20037;-55
2024/01/28 04:58:39;;;;;;;4.57;2.58;;;;;;;17.49;45.86;102876.66;10424108;28;20965;-56
2024/01/28 05:03:39;;;;;;;4.15;2.55;;;;;;;17.45;45.11;102880.88;10424913;28;20120;-55
2024/01/28 05:08:40;;;;;;;8.23;2.67;;;;;;;17.49;45.46;102867.81;10430553;28;20108;-55
2024/01/28 05:13:40;;;;;;;3.70;2.58;;;;;;;17.47;44.44;102870.72;10431891;28;20335;-56
2024/01/28 05:18:41;;;;;;;5.75;3.22;;;;;;;17.53;44.91;102872.47;10431781;28;20037;-55
2024/01/28 05:23:41;;;;;;;5.93;2.95;;;;;;;17.58;44.66;102865.59;10431488;28;20071;-55
2024/01/28 05:28:42;;;;;;;4.47;2.47;;;;;;;17.59;44.44;102867.22;10432061;28;20022;-55
2024/01/28 05:33:42;;;;;;;4.40;2.53;;;;;;;17.56;44.75;102871.19;10435246;28;20283;-55
2024/01/28 05:38:44;;;;;;;3.45;2.35;;;;;;;17.57;44.78;102858.59;10431886;28;20333;-56
2024/01/28 05:43:44;;;;;;;4.93;2.95;;;;;;;17.56;44.93;102848.91;10431165;28;20543;-56
2024/01/28 05:48:44;;;;;;;3.63;2.40;;;;;;;17.53;45.05;102832.25;10433330;28;20036;-55
2024/01/28 05:53:45;;;;;;;3.73;2.40;;;;;;;17.53;44.52;102823.38;10422969;28;20264;-55
2024/01/28 05:58:45;;;;;;;5.93;2.72;;;;;;;17.54;44.54;102814.28;10415336;28;20279;-56
2024/01/28 06:03:46;;;;;;;4.57;2.63;;;;;;;17.53;45.09;102809.97;10414503;28;20055;-56
2024/01/28 06:08:46;;;;;;;3.90;2.13;;;;;;;17.56;44.86;102800.63;10427844;28;20524;-55
2024/01/28 06:13:46;;;;;;;4.00;2.50;;;;;;;17.54;44.86;102785.59;10416082;28;20300;-56
2024/01/28 06:18:47;;;;;;;5.15;2.60;;;;;;;17.54;45.56;102790.16;10414291;28;20056;-55
2024/01/28 06:23:47;;;;;;;3.97;2.25;;;;;;;17.51;44.49;102788.72;10414081;28;20477;-55
2024/01/28 06:28:48;;;;;;;3.73;2.30;;;;;;;17.53;44.89;102773.25;10414366;28;20033;-55
2024/01/28 06:33:48;;;;;;;4.18;2.42;;;;;;;17.54;44.20;102766.00;10417228;28;20769;-55
2024/01/28 06:38:48;;;;;;;3.97;2.17;;;;;;;17.57;44.16;102753.97;10428757;28;20108;-55
2024/01/28 06:43:49;;;;;;;5.00;3.17;;;;;;;17.58;43.80;102761.78;10431934;28;20017;-55
2024/01/28 06:48:49;;;;;;;6.20;2.20;;;;;;;17.53;45.26;102767.06;10416909;28;20288;-56
2024/01/28 06:53:51;;;;;;;8.65;2.83;;;;;;;17.63;45.18;102772.59;10415931;28;20268;-56
2024/01/28 06:58:52;;;;;;;9.48;2.60;;;;;;;17.69;46.79;102762.81;10416083;28;20044;-57
2024/01/28 07:03:52;;;;;;;17.02;3.47;;;;;;;17.68;46.37;102759.28;10412120;28;20446;-58
2024/01/28 07:08:52;;;;;;;6.87;2.23;;;;;;;17.70;47.63;102761.78;10438733;28;20541;-56
2024/01/28 07:13:53;;;;;;;9.27;2.80;;;;;;;17.78;46.38;102759.53;10435257;28;20286;-57
2024/01/28 07:18:53;;;;;;;9.98;2.85;;;;;;;17.64;46.76;102762.69;10434550;28;20774;-57
2024/01/28 07:23:53;;;;;;;10.67;4.23;;;;;;;17.58;47.46;102761.78;10411632;28;20025;-55
2024/01/28 07:28:54;;;;;;;13.03;2.93;;;;;;;17.54;47.39;102757.97;10411167;28;20700;-56
2024/01/28 07:33:54;;;;;;;16.97;3.37;;;;;;;17.56;48.35;102765.75;10444875;28;20280;-56
2024/01/28 07:38:54;;;;;;;11.40;4.00;;;;;;;17.54;48.40;102764.13;10416484;28;20276;-55
2024/01/28 07:43:55;;;;;;;10.40;2.90;;;;;;;17.51;47.03;102767.28;10410932;28;20025;-54
2024/01/28 07:48:55;;;;;;;7.03;2.58;;;;;;;17.52;48.41;102768.09;10411057;28;20702;-54
2024/01/28 07:53:56;;;;;;;16.73;4.30;;;;;;;17.49;47.41;102776.63;10410571;28;20095;-54
2024/01/28 07:58:56;;;;;;;14.57;3.80;;;;;;;17.51;47.41;102777.19;10427617;28;20111;-55
2024/01/28 08:03:56;;;;;;;13.73;3.70;;;;;;;17.20;47.17;102781.94;10440171;28;20026;-53
2024/01/28 08:08:57;;;;;;;13.18;3.40;;;;;;;17.32;46.66;102768.50;10427935;28;20120;-54
2024/01/28 08:13:58;;;;;;;9.55;2.70;;;;;;;17.34;46.40;102763.72;10408514;28;20040;-54
2024/01/28 08:18:58;;;;;;;8.23;2.88;;;;;;;17.36;47.89;102758.94;10409342;28;20025;-54
2024/01/28 08:23:58;;;;;;;10.43;3.07;;;;;;;17.36;46.92;102752.75;10408785;28;20025;-52
2024/01/28 08:28:59;;;;;;;17.08;3.85;;;;;;;17.39;47.74;102742.34;10408677;28;20810;-54
2024/01/28 08:34:00;;;;;;;11.07;2.58;;;;;;;17.35;47.31;102738.53;10434007;28;20029;-53
2024/01/28 08:39:03;;;;;;;5.32;2.97;;;;;;;17.33;47.13;102740.63;10408239;28;20056;-53
2024/01/28 08:44:05;;;;;;;7.07;2.53;;;;;;;17.31;46.60;102732.03;10407278;28;20037;-53
2024/01/28 08:49:05;;;;;;;7.38;2.30;;;;;;;17.31;46.72;102742.75;10407432;28;20034;-53
2024/01/28 08:54:06;;;;;;;10.70;2.55;;;;;;;17.33;47.31;102735.28;10406225;28;20040;-55
2024/01/28 08:59:06;;;;;;;6.80;2.67;;;;;;;17.27;47.20;102730.03;10407626;28;20029;-56
2024/01/28 09:04:06;;;;;;;5.87;2.20;;;;;;;17.18;47.80;102721.56;10407235;28;20858;-53
2024/01/28 09:09:08;;;;;;;5.70;2.43;;;;;;;17.09;48.25;102728.34;10419824;28;20276;-53
2024/01/28 09:14:09;;;;;;;5.15;1.88;;;;;;;17.05;46.89;102725.34;10406976;28;20288;-54
2024/01/28 09:19:09;;;;;;;7.78;2.80;;;;;;;17.03;47.80;102715.88;10407309;28;20405;-55
2024/01/28 09:24:09;;;;;;;6.50;2.10;;;;;;;16.95;47.41;102717.88;10406887;28;20026;-54
2024/01/28 09:29:10;;;;;;;6.20;3.25;;;;;;;16.94;47.63;102721.63;10407357;28;20370;-54
2024/01/28 09:34:10;;;;;;;4.43;2.03;;;;;;;16.94;47.25;102718.13;10407459;28;20346;-52
2024/01/28 09:39:11;;;;;;;8.47;2.80;;;;;;;16.86;48.21;102719.28;10406884;28;20315;-54
2024/01/28 09:44:11;;;;;;;7.82;2.70;;;;;;;16.80;47.55;102714.03;10406484;28;20299;-54
2024/01/28 09:49:12;;;;;;;5.80;2.47;;;;;;;16.85;48.44;102717.66;10405751;28;20029;-54
2024/01/28 09:54:12;;;;;;;5.25;2.40;;;;;;;16.85;48.68;102708.81;10410590;28;20267;-54
2024/01/28 09:59:14;;;;;;;5.28;2.05;;;;;;;16.83;47.96;102698.34;10414842;28;20361;-56
2024/01/28 10:04:15;;;;;;;4.05;2.63;;;;;;;16.81;47.97;102700.44;10412702;28;20079;-54
2024/01/28 10:09:16;;;;;;;6.55;2.15;;;;;;;16.80;48.93;102693.41;10434229;28;20422;-56
2024/01/28 10:14:17;;;;;;;5.75;1.80;;;;;;;16.80;48.44;102696.09;10454207;28;20076;-56
2024/01/28 10:19:17;;;;;;;3.42;2.15;;;;;;;16.74;49.01;102691.69;10454848;28;20421;-56
2024/01/28 10:24:18;;;;;;;4.38;2.35;;;;;;;16.76;48.81;102678.88;10454163;28;20021;-55
2024/01/28 10:29:20;;;;;;;4.55;1.80;;;;;;;16.77;49.71;102677.00;10453561;28;20162;-56
2024/01/28 10:34:20;;;;;;;3.80;1.95;;;;;;;16.74;49.19;102666.78;10453745;28;20025;-55
2024/01/28 10:39:22;;;;;;;2.83;1.65;;;;;;;16.72;49.39;102671.56;10413505;28;20029;-55
2024/01/28 10:44:22;;;;;;;2.72;1.40;;;;;;;16.74;49.67;102664.09;10412632;28;20095;-55
2024/01/28 10:49:29;;;;;;;2.90;1.83;;;;;;;16.71;48.81;102657.34;10410707;28;20091;-56
2024/01/28 10:54:30;;;;;;;4.78;3.05;;;;;;;16.72;48.60;102653.63;10411349;28;20279;-53
2024/01/28 10:59:32;;;;;;;3.45;1.77;;;;;;;16.77;48.77;102645.69;10420685;28;20033;-52
2024/01/28 11:04:33;;;;;;;5.65;1.98;;;;;;;16.75;49.59;102644.28;10397511;28;20086;-57
2024/01/28 11:09:33;;;;;;;9.68;2.20;;;;;;;16.80;49.08;102637.16;10421587;28;20455;-55
2024/01/28 11:14:34;;;;;;;8.07;2.40;;;;;;;16.97;47.90;102626.53;10441863;28;20033;-54
2024/01/28 11:19:34;;;;;;;17.08;3.92;;;;;;;17.10;52.60;102623.56;10421266;28;20271;-58
2024/01/28 11:24:58;;;;;;;13.05;3.53;;;;;;;17.18;57.53;102614.34;10412266;28;20033;-55
2024/01/28 11:29:58;;;;;;;13.07;2.78;;;;;;;17.18;52.84;102612.47;10418435;28;20029;-54
2024/01/28 11:34:59;;;;;;;8.97;2.57;;;;;;;17.19;55.65;102613.28;10443197;28;20026;-54
2024/01/28 11:40:05;;;;;;;10.90;3.58;;;;;;;17.21;55.57;102605.81;10452756;28;20275;-58
2024/01/28 11:45:06;;;;;;;6.57;2.83;;;;;;;17.21;53.15;102597.78;10433814;28;20041;-55
2024/01/28 11:50:08;;;;;;;13.07;3.28;;;;;;;17.15;53.22;102585.31;10420937;28;20025;-55
2024/01/28 11:55:15;;;;;;;12.10;3.65;;;;;;;17.16;53.62;102585.06;10437400;28;20017;-55
2024/01/28 12:00:16;;;;;;;14.48;3.00;;;;;;;17.25;52.50;102572.91;10449775;28;20031;-53
2024/01/28 12:05:16;;;;;;;14.73;3.25;;;;;;;17.30;53.18;102566.03;10430913;28;20025;-54
2024/01/28 12:10:17;;;;;;;11.48;2.65;;;;;;;17.29;52.87;102565.22;10435396;28;20021;-56
2024/01/28 12:15:17;;;;;;;8.88;3.00;;;;;;;17.29;52.98;102554.50;10420377;28;20057;-54
2024/01/28 12:20:22;;;;;;;13.85;3.22;;;;;;;17.31;51.45;102548.88;10420587;28;20467;-54
2024/01/28 12:25:22;;;;;;;7.40;2.80;;;;;;;17.33;52.62;102544.91;10429406;28;20051;-56
2024/01/28 12:30:23;;;;;;;10.43;2.92;;;;;;;17.42;51.86;102538.09;10434902;28;20029;-57
2024/01/28 12:35:23;;;;;;;12.70;3.38;;;;;;;17.34;51.25;102516.22;10431030;28;20113;-57
2024/01/28 12:40:24;;;;;;;11.17;3.03;;;;;;;17.44;52.62;102516.41;10428240;28;20417;-54
2024/01/28 12:45:24;;;;;;;15.10;3.40;;;;;;;17.42;51.88;102510.47;10429639;28;20296;-55
2024/01/28 12:50:24;;;;;;;9.77;2.53;;;;;;;17.43;52.17;102512.91;10426812;28;20287;-56
2024/01/28 12:55:25;;;;;;;12.30;3.37;;;;;;;17.48;52.40;102501.44;10416568;28;20045;-57
2024/01/28 13:00:25;;;;;;;10.93;3.20;;;;;;;17.51;52.57;102496.38;10433576;28;20773;-56
2024/01/28 13:05:25;;;;;;;10.13;2.30;;;;;;;17.48;50.96;102478.09;10442502;28;20294;-57
2024/01/28 13:10:26;;;;;;;11.90;2.93;;;;;;;17.41;51.47;102474.78;10430840;28;20115;-57
2024/01/28 13:15:26;;;;;;;9.98;3.10;;;;;;;17.43;52.72;102471.88;10426157;28;20299;-55
2024/01/28 13:20:26;;;;;;;7.43;2.50;;;;;;;17.43;52.87;102469.19;10425743;28;20052;-57
2024/01/28 13:25:26;;;;;;;12.77;3.33;;;;;;;17.36;53.21;102458.63;10429122;28;20296;-57
2024/01/28 13:30:27;;;;;;;8.07;2.07;;;;;;;17.23;53.10;102449.03;10429860;28;20282;-58
2024/01/28 13:35:29;;;;;;;19.50;4.68;;;;;;;17.13;53.56;102442.69;10439419;28;20329;-58
2024/01/28 13:40:30;;;;;;;15.27;4.05;;;;;;;17.03;52.50;102437.16;10427216;28;20033;-58
2024/01/28 13:45:30;;;;;;;8.20;2.90;;;;;;;17.02;53.78;102440.91;10437431;28;20389;-59
2024/01/28 13:50:31;;;;;;;10.33;3.90;;;;;;;16.98;53.54;102437.09;10436569;28;20648;-58
2024/01/28 13:55:31;;;;;;;12.23;3.10;;;;;;;16.96;52.87;102426.63;10437468;28;20267;-58
2024/01/28 14:00:31;;;;;;;9.00;2.33;;;;;;;16.98;54.86;102415.66;10445070;28;20340;-59
2024/01/28 14:05:32;;;;;;;15.30;4.43;;;;;;;16.82;53.13;102423.44;10424375;28;20296;-57
2024/01/28 14:10:32;;;;;;;9.63;2.67;;;;;;;16.77;53.51;102423.34;10442245;28;20578;-55
2024/01/28 14:15:37;;;;;;;10.10;3.45;;;;;;;16.71;52.99;102413.59;10424095;28;20381;-57
2024/01/28 14:20:38;;;;;;;12.30;4.10;;;;;;;16.69;53.18;102401.47;10424710;28;20057;-57
2024/01/28 14:25:38;;;;;;;15.90;3.00;;;;;;;16.64;53.58;102400.31;10432495;28;20120;-56
2024/01/28 14:30:38;;;;;;;10.07;3.90;;;;;;;16.58;53.47;102401.28;10441124;28;20386;-57
2024/01/28 14:35:38;;;;;;;8.50;2.40;;;;;;;16.56;52.24;102410.59;10432210;28;20783;-57
2024/01/28 14:40:39;;;;;;;10.37;2.93;;;;;;;16.54;51.84;102402.81;10435791;28;20488;-56
2024/01/28 14:45:39;;;;;;;9.93;3.08;;;;;;;16.51;51.73;102403.28;10428837;28;20771;-57
2024/01/28 14:50:39;;;;;;;10.50;3.27;;;;;;;16.48;52.46;102411.00;10425082;28;20079;-55
2024/01/28 14:55:40;;;;;;;19.17;4.80;;;;;;;16.44;53.08;102386.56;10428068;28;20310;-56
2024/01/28 15:00:40;;;;;;;11.77;3.88;;;;;;;16.49;52.66;102383.19;10427537;28;20036;-56
2024/01/28 15:05:40;;;;;;;12.25;3.75;;;;;;;16.57;52.79;102382.75;10425904;28;20113;-57
2024/01/28 15:10:41;;;;;;;15.83;3.53;;;;;;;16.60;53.13;102377.75;10452882;28;20040;-56
2024/01/28 15:15:41;;;;;;;22.48;4.43;;;;;;;16.64;51.54;102370.03;10432233;28;20299;-57
2024/01/28 15:20:42;;;;;;;11.50;3.45;;;;;;;16.61;51.39;102357.97;10432142;28;20361;-55
2024/01/28 15:25:42;;;;;;;17.02;4.10;;;;;;;16.61;52.06;102359.81;10433187;28;20467;-57
2024/01/28 15:30:42;;;;;;;13.93;3.10;;;;;;;16.59;51.42;102356.59;10431770;28;20014;-57
2024/01/28 15:35:42;;;;;;;13.45;3.05;;;;;;;16.59;50.80;102367.28;10431252;28;20268;-57
2024/01/28 15:40:43;;;;;;;10.50;3.33;;;;;;;16.63;52.36;102349.69;10434146;28;20025;-57
2024/01/28 15:45:43;;;;;;;20.05;4.93;;;;;;;16.63;52.13;102350.50;10437680;28;20291;-59
2024/01/28 15:50:44;;;;;;;14.37;3.43;;;;;;;16.75;52.60;102349.63;10430464;28;20496;-57
2024/01/28 15:55:44;;;;;;;17.85;4.60;;;;;;;16.68;51.34;102352.47;10412087;28;20288;-57
2024/01/28 16:00:44;;;;;;;17.10;4.55;;;;;;;16.71;51.92;102352.00;10441920;28;20025;-55
2024/01/28 16:05:45;;;;;;;14.73;4.90;;;;;;;16.72;53.03;102334.88;10419527;28;20433;-58
2024/01/28 16:10:45;;;;;;;11.07;3.67;;;;;;;16.80;51.95;102320.25;10437168;28;20288;-58
2024/01/28 16:15:45;;;;;;;14.33;4.70;;;;;;;16.79;52.29;102322.09;10426834;28;20045;-58
2024/01/28 16:20:46;;;;;;;17.85;5.85;;;;;;;16.76;51.00;102314.56;10428387;28;20630;-58
2024/01/28 16:25:46;;;;;;;19.07;6.13;;;;;;;16.76;50.79;102314.56;10447691;28;20111;-54
2024/01/28 16:30:47;;;;;;;9.75;4.22;;;;;;;16.70;51.03;102315.56;10428269;28;20302;-55
2024/01/28 16:35:48;;;;;;;13.18;4.60;;;;;;;16.72;51.04;102321.47;10449869;28;20032;-55
2024/01/28 16:40:48;;;;;;;12.07;4.45;;;;;;;16.80;50.54;102317.56;10434620;28;20036;-55
2024/01/28 16:45:49;;;;;;;7.80;4.00;;;;;;;16.86;49.97;102327.31;10445647;28;20048;-54
2024/01/28 16:50:49;;;;;;;10.40;4.25;;;;;;;16.87;49.87;102323.56;10446091;28;20028;-54
2024/01/28 16:55:50;;;;;;;10.27;4.95;;;;;;;16.85;49.51;102323.81;10436759;28;20028;-55
2024/01/28 17:00:50;;;;;;;12.43;5.50;;;;;;;16.85;47.96;102317.66;10444003;28;20021;-55
2024/01/28 17:05:50;;;;;;;14.07;6.27;;;;;;;17.05;51.03;102315.28;10428028;28;20365;-55
2024/01/28 17:10:51;;;;;;;9.67;4.93;;;;;;;17.14;52.54;102324.50;10436796;28;20290;-54
2024/01/28 17:15:51;;;;;;;23.40;6.43;;;;;;;17.23;51.83;102317.69;10423029;28;20438;-57
2024/01/28 17:20:52;;;;;;;17.35;6.13;;;;;;;17.20;53.12;102312.00;10418166;28;20299;-58
2024/01/28 17:25:52;;;;;;;18.52;6.28;;;;;;;17.36;53.11;102308.47;10439209;28;20032;-57
2024/01/28 17:30:52;;;;;;;20.17;5.80;;;;;;;17.35;52.79;102312.22;10420324;28;20029;-57
2024/01/28 17:35:53;;;;;;;22.05;6.63;;;;;;;17.29;52.60;102309.72;10422913;28;20600;-58
2024/01/28 17:40:54;;;;;;;19.08;5.97;;;;;;;17.20;52.57;102310.13;10426730;28;20103;-56
2024/01/28 17:45:55;;;;;;;22.42;6.47;;;;;;;17.15;52.30;102307.38;10421631;28;20354;-57
2024/01/28 17:50:55;;;;;;;27.00;7.22;;;;;;;17.19;53.27;102318.44;10427994;28;20034;-55
2024/01/28 17:55:57;;;;;;;34.60;7.43;;;;;;;17.16;52.29;102314.34;10415052;28;20033;-55
2024/01/28 18:00:57;;;;;;;37.60;8.55;;;;;;;17.15;52.32;102310.06;10434910;28;20417;-56
2024/01/28 18:05:58;;;;;;;33.45;7.20;;;;;;;17.16;53.86;102302.81;10431102;28;20060;-57
2024/01/28 18:11:02;;;;;;;32.80;7.10;;;;;;;17.18;53.74;102298.03;10447716;28;20033;-57
2024/01/28 18:16:03;;;;;;;21.60;6.13;;;;;;;17.18;53.43;102298.84;10426819;28;20041;-58
2024/01/28 18:21:03;;;;;;;28.13;7.75;;;;;;;17.15;52.32;102283.25;10426370;28;20045;-58
2024/01/28 18:26:04;;;;;;;23.83;6.68;;;;;;;17.11;52.89;102292.03;10438049;28;20029;-54
2024/01/28 18:31:04;;;;;;;20.95;5.07;;;;;;;17.06;52.06;102295.47;10425104;28;20029;-55
2024/01/28 18:36:05;;;;;;;15.68;6.05;;;;;;;17.02;53.01;102297.00;10448548;28;20036;-55
2024/01/28 18:41:08;;;;;;;14.70;4.68;;;;;;;16.96;51.93;102292.63;10440671;28;20044;-55
2024/01/28 18:46:09;;;;;;;11.18;4.63;;;;;;;16.94;51.63;102287.53;10425109;28;20036;-56
2024/01/28 18:51:09;;;;;;;15.33;4.70;;;;;;;16.99;51.55;102291.34;10449643;28;20044;-55
2024/01/28 18:56:14;;;;;;;12.83;5.03;;;;;;;16.92;52.79;102291.50;10413269;28;20280;-54
2024/01/28 19:01:15;;;;;;;14.35;6.22;;;;;;;16.98;52.61;102297.75;10415114;28;20279;-57
2024/01/28 19:06:15;;;;;;;18.40;4.78;;;;;;;17.00;51.48;102287.59;10419002;28;20040;-58
2024/01/28 19:11:15;;;;;;;9.57;5.30;;;;;;;17.00;51.90;102291.09;10437153;28;20041;-57
2024/01/28 19:16:16;;;;;;;10.60;4.17;;;;;;;17.03;51.69;102285.22;10429937;28;20044;-57
2024/01/28 19:21:16;;;;;;;15.38;5.55;;;;;;;17.03;52.27;102274.50;10420550;28;20619;-56
2024/01/28 19:26:18;;;;;;;9.20;4.27;;;;;;;17.05;52.44;102276.94;10432360;28;20021;-57
2024/01/28 19:31:20;;;;;;;9.05;4.45;;;;;;;17.04;51.91;102272.63;10436426;28;20295;-57
2024/01/28 19:36:21;;;;;;;9.32;4.05;;;;;;;17.03;52.14;102265.66;10411040;28;20033;-57
2024/01/28 19:41:21;;;;;;;11.60;5.70;;;;;;;17.07;51.81;102277.53;10413885;28;20029;-56
2024/01/28 19:46:22;;;;;;;10.77;4.80;;;;;;;17.05;51.09;102277.78;10440729;28;20029;-56
2024/01/28 19:51:25;;;;;;;12.57;4.75;;;;;;;17.05;51.99;102283.13;10431099;28;20267;-57
2024/01/28 19:56:25;;;;;;;9.25;5.15;;;;;;;17.08;50.87;102285.31;10423257;28;20021;-57
2024/01/28 20:01:26;;;;;;;7.28;4.00;;;;;;;17.06;50.84;102283.94;10410105;28;20033;-57
2024/01/28 20:06:27;;;;;;;13.55;4.60;;;;;;;17.03;52.46;102290.59;10415867;28;20057;-56
2024/01/28 20:11:27;;;;;;;6.72;3.88;;;;;;;17.05;52.22;102277.78;10424791;28;20040;-58
2024/01/28 20:16:27;;;;;;;8.07;4.47;;;;;;;17.04;51.05;102292.19;10434387;28;20056;-57
2024/01/28 20:21:30;;;;;;;6.82;4.47;;;;;;;17.05;50.39;102295.69;10419552;28;20927;-55
2024/01/28 20:26:30;;;;;;;14.88;4.15;;;;;;;17.07;50.89;102302.44;10415994;28;20409;-55
2024/01/28 20:31:31;;;;;;;7.25;4.05;;;;;;;17.05;51.58;102298.38;10436180;28;20033;-55
2024/01/28 20:36:32;;;;;;;7.03;3.80;;;;;;;17.03;51.21;102293.25;10409248;28;20552;-55
2024/01/28 20:41:32;;;;;;;4.60;4.00;;;;;;;17.06;50.48;102284.75;10419111;28;20027;-53
2024/01/28 20:46:32;;;;;;;6.93;4.07;;;;;;;17.05;51.17;102274.25;10428388;28;20292;-55
2024/01/28 20:51:32;;;;;;;7.87;4.07;;;;;;;17.05;50.88;102280.44;10411278;28;20282;-56
2024/01/28 20:56:33;;;;;;;5.67;3.77;;;;;;;17.06;49.60;102283.94;10416809;28;20279;-55
2024/01/28 21:01:33;;;;;;;6.28;3.90;;;;;;;17.05;49.84;102274.25;10409174;28;20294;-55
2024/01/28 21:06:34;;;;;;;7.37;4.47;;;;;;;17.05;50.78;102274.25;10408383;28;20532;-56
2024/01/28 21:11:34;;;;;;;8.80;4.10;;;;;;;17.04;50.73;102275.31;10420241;28;20316;-55
2024/01/28 21:16:34;;;;;;;5.87;3.33;;;;;;;17.06;50.76;102286.63;10408371;28;20033;-55
2024/01/28 21:21:37;;;;;;;5.13;3.25;;;;;;;17.05;50.83;102291.16;10441492;28;20754;-57
2024/01/28 21:26:39;;;;;;;5.50;3.80;;;;;;;17.11;50.62;102279.44;10448445;28;20069;-57
2024/01/28 21:31:39;;;;;;;5.55;3.00;;;;;;;17.19;49.36;102283.59;10458414;28;20145;-57
2024/01/28 21:36:40;;;;;;;5.10;3.38;;;;;;;17.20;49.56;102287.88;10408128;28;20030;-58
2024/01/28 21:41:40;;;;;;;5.90;3.33;;;;;;;17.25;49.38;102283.38;10408330;28;20033;-57
2024/01/28 21:46:40;;;;;;;5.93;3.90;;;;;;;17.27;48.19;102285.00;10407860;28;20629;-58
2024/01/28 21:51:41;;;;;;;6.60;3.50;;;;;;;17.25;48.21;102293.31;10415681;28;20284;-57
2024/01/28 21:56:41;;;;;;;4.67;3.43;;;;;;;17.25;49.23;102291.44;10415517;28;20287;-57
2024/01/28 22:01:41;;;;;;;4.50;3.30;;;;;;;17.24;49.31;102289.81;10415754;28;20299;-58
2024/01/28 22:06:42;;;;;;;11.30;4.47;;;;;;;17.24;48.70;102291.69;10414963;28;20314;-58
2024/01/28 22:11:42;;;;;;;6.30;3.63;;;;;;;17.25;47.87;102293.31;10427630;28;20288;-58
2024/01/28 22:16:42;;;;;;;6.87;3.87;;;;;;;17.22;48.23;102281.22;10414786;28;20272;-58
2024/01/28 22:21:42;;;;;;;6.13;3.43;;;;;;;17.27;48.51;102288.50;10449323;28;20676;-57
2024/01/28 22:26:43;;;;;;;5.23;3.10;;;;;;;17.28;48.32;102294.66;10455562;28;20284;-57
2024/01/28 22:31:44;;;;;;;5.68;3.13;;;;;;;17.29;48.90;102293.63;10464863;28;20640;-57
2024/01/28 22:36:46;;;;;;;4.87;3.50;;;;;;;17.28;48.96;102294.66;10414287;28;20020;-57
2024/01/28 22:41:46;;;;;;;4.72;3.42;;;;;;;17.31;48.23;102296.88;10413935;28;20291;-58
2024/01/28 22:46:47;;;;;;;5.10;2.90;;;;;;;17.29;47.86;102291.75;10411475;28;20026;-58
2024/01/28 22:51:50;;;;;;;5.75;3.30;;;;;;;17.32;48.55;102293.13;10411571;28;20543;-57
2024/01/28 22:56:50;;;;;;;4.95;3.28;;;;;;;17.32;48.80;102295.81;10411058;28;20021;-58